sensor_id;sensor_type;location;lat;lon;timestamp;pressure;altitude;pressure_sealevel;temperature;humidity
78990;BME280;68390;52.130;21.218;2023-03-11T00:00:25;97826.69;;;6.78;82.22
78990;BME280;68390;52.130;21.218;2023-03-11T00:02:54;97831.31;;;6.78;81.76
78990;BME280;68390;52.130;21.218;2023-03-11T00:05:26;97842.41;;;6.76;82.08
78990;BME280;68390;52.130;21.218;2023-03-11T00:07:52;97829.81;;;6.75;82.35
78990;BME280;68390;52.130;21.218;2023-03-11T00:10:21;97834.88;;;6.72;81.86
78990;BME280;68390;52.130;21.218;2023-03-11T00:12:46;97827.75;;;6.71;81.77
78990;BME280;68390;52.130;21.218;2023-03-11T00:15:12;97827.09;;;6.69;82.29
78990;BME280;68390;52.130;21.218;2023-03-11T00:17:38;97827.75;;;6.64;82.28
78990;BME280;68390;52.130;21.218;2023-03-11T00:20:05;97826.91;;;6.63;83.05
78990;BME280;68390;52.130;21.218;2023-03-11T00:22:32;97821.22;;;6.65;83.03
78990;BME280;68390;52.130;21.218;2023-03-11T00:24:57;97821.66;;;6.69;82.85
78990;BME280;68390;52.130;21.218;2023-03-11T00:27:23;97819.97;;;6.68;82.67
78990;BME280;68390;52.130;21.218;2023-03-11T00:29:49;97818.06;;;6.68;82.85
78990;BME280;68390;52.130;21.218;2023-03-11T00:32:14;97807.59;;;6.72;82.81
78990;BME280;68390;52.130;21.218;2023-03-11T00:34:40;97818.50;;;6.72;82.19
78990;BME280;68390;52.130;21.218;2023-03-11T00:37:05;97812.41;;;6.70;82.60
78990;BME280;68390;52.130;21.218;2023-03-11T00:39:31;97807.19;;;6.68;83.01
78990;BME280;68390;52.130;21.218;2023-03-11T00:41:56;97811.78;;;6.68;83.00
78990;BME280;68390;52.130;21.218;2023-03-11T00:44:22;97800.25;;;6.66;81.83
78990;BME280;68390;52.130;21.218;2023-03-11T00:46:47;97797.31;;;6.60;82.27
78990;BME280;68390;52.130;21.218;2023-03-11T00:49:13;97794.38;;;6.55;82.75
78990;BME280;68390;52.130;21.218;2023-03-11T00:51:38;97801.31;;;6.51;82.57
78990;BME280;68390;52.130;21.218;2023-03-11T00:54:04;97793.72;;;6.47;82.16
78990;BME280;68390;52.130;21.218;2023-03-11T00:56:29;97784.72;;;6.46;83.31
78990;BME280;68390;52.130;21.218;2023-03-11T00:58:55;97793.31;;;6.43;82.78
78990;BME280;68390;52.130;21.218;2023-03-11T01:01:20;97789.97;;;6.41;82.94
78990;BME280;68390;52.130;21.218;2023-03-11T01:03:46;97783.88;;;6.39;82.76
78990;BME280;68390;52.130;21.218;2023-03-11T01:06:12;97779.69;;;6.37;83.03
78990;BME280;68390;52.130;21.218;2023-03-11T01:08:37;97771.09;;;6.33;83.02
78990;BME280;68390;52.130;21.218;2023-03-11T01:11:04;97772.53;;;6.29;83.07
78990;BME280;68390;52.130;21.218;2023-03-11T01:13:30;97766.03;;;6.23;82.48
78990;BME280;68390;52.130;21.218;2023-03-11T01:15:57;97775.69;;;6.19;82.65
78990;BME280;68390;52.130;21.218;2023-03-11T01:18:23;97777.97;;;6.16;83.35
78990;BME280;68390;52.130;21.218;2023-03-11T01:20:49;97772.50;;;6.09;82.34
78990;BME280;68390;52.130;21.218;2023-03-11T01:23:16;97775.19;;;6.03;82.81
78990;BME280;68390;52.130;21.218;2023-03-11T01:25:42;97766.41;;;6.01;84.79
78990;BME280;68390;52.130;21.218;2023-03-11T01:28:08;97761.81;;;6.01;84.54
78990;BME280;68390;52.130;21.218;2023-03-11T01:30:35;97766.19;;;5.96;83.11
78990;BME280;68390;52.130;21.218;2023-03-11T01:33:02;97766.38;;;5.94;83.91
78990;BME280;68390;52.130;21.218;2023-03-11T01:35:31;97766.81;;;5.91;83.86
78990;BME280;68390;52.130;21.218;2023-03-11T01:37:57;97768.91;;;5.89;83.97
78990;BME280;68390;52.130;21.218;2023-03-11T01:40:33;97764.41;;;5.81;83.61
78990;BME280;68390;52.130;21.218;2023-03-11T01:43:00;97757.47;;;5.72;83.57
78990;BME280;68390;52.130;21.218;2023-03-11T01:45:38;97758.31;;;5.73;85.44
78990;BME280;68390;52.130;21.218;2023-03-11T01:48:07;97757.06;;;5.69;83.77
78990;BME280;68390;52.130;21.218;2023-03-11T01:50:40;97752.44;;;5.63;84.31
78990;BME280;68390;52.130;21.218;2023-03-11T01:53:08;97750.34;;;5.58;84.75
78990;BME280;68390;52.130;21.218;2023-03-11T01:55:35;97765.59;;;5.52;84.47
78990;BME280;68390;52.130;21.218;2023-03-11T01:58:04;97756.56;;;5.45;83.42
78990;BME280;68390;52.130;21.218;2023-03-11T02:00:30;97756.09;;;5.35;83.89
78990;BME280;68390;52.130;21.218;2023-03-11T02:02:57;97757.31;;;5.33;84.98
78990;BME280;68390;52.130;21.218;2023-03-11T02:05:24;97749.97;;;5.27;83.39
78990;BME280;68390;52.130;21.218;2023-03-11T02:07:51;97738.22;;;5.20;83.43
78990;BME280;68390;52.130;21.218;2023-03-11T02:10:18;97742.78;;;5.12;84.30
78990;BME280;68390;52.130;21.218;2023-03-11T02:12:44;97741.91;;;5.05;83.64
78990;BME280;68390;52.130;21.218;2023-03-11T02:15:11;97741.06;;;4.98;83.52
78990;BME280;68390;52.130;21.218;2023-03-11T02:17:39;97746.63;;;4.90;83.60
78990;BME280;68390;52.130;21.218;2023-03-11T02:22:37;97745.75;;;4.83;84.58
78990;BME280;68390;52.130;21.218;2023-03-11T02:27:48;97732.50;;;4.73;84.99
78990;BME280;68390;52.130;21.218;2023-03-11T02:30:15;97733.09;;;4.69;84.65
78990;BME280;68390;52.130;21.218;2023-03-11T02:32:43;97739.13;;;4.64;84.22
78990;BME280;68390;52.130;21.218;2023-03-11T02:35:09;97732.78;;;4.57;84.37
78990;BME280;68390;52.130;21.218;2023-03-11T02:37:35;97734.25;;;4.53;85.12
78990;BME280;68390;52.130;21.218;2023-03-11T02:42:49;97723.31;;;4.47;84.69
78990;BME280;68390;52.130;21.218;2023-03-11T02:45:17;97730.00;;;4.44;86.21
78990;BME280;68390;52.130;21.218;2023-03-11T02:47:44;97729.53;;;4.40;84.92
78990;BME280;68390;52.130;21.218;2023-03-11T02:50:12;97734.75;;;4.35;85.39
78990;BME280;68390;52.130;21.218;2023-03-11T02:52:39;97722.97;;;4.28;85.45
78990;BME280;68390;52.130;21.218;2023-03-11T02:55:06;97732.34;;;4.26;85.75
78990;BME280;68390;52.130;21.218;2023-03-11T02:57:32;97734.16;;;4.19;84.88
78990;BME280;68390;52.130;21.218;2023-03-11T02:59:58;97731.41;;;4.12;85.27
78990;BME280;68390;52.130;21.218;2023-03-11T03:02:24;97730.47;;;4.05;85.26
78990;BME280;68390;52.130;21.218;2023-03-11T03:04:49;97730.22;;;4.00;85.95
78990;BME280;68390;52.130;21.218;2023-03-11T03:07:15;97726.03;;;3.97;85.91
78990;BME280;68390;52.130;21.218;2023-03-11T03:09:40;97732.06;;;3.93;86.44
78990;BME280;68390;52.130;21.218;2023-03-11T03:12:06;97730.38;;;3.92;85.89
78990;BME280;68390;52.130;21.218;2023-03-11T03:14:31;97712.97;;;3.86;85.59
78990;BME280;68390;52.130;21.218;2023-03-11T03:16:57;97719.00;;;3.82;86.60
78990;BME280;68390;52.130;21.218;2023-03-11T03:19:22;97722.09;;;3.79;85.85
78990;BME280;68390;52.130;21.218;2023-03-11T03:21:48;97724.56;;;3.74;86.22
78990;BME280;68390;52.130;21.218;2023-03-11T03:24:14;97721.00;;;3.73;86.78
78990;BME280;68390;52.130;21.218;2023-03-11T03:26:39;97720.16;;;3.73;86.82
78990;BME280;68390;52.130;21.218;2023-03-11T03:29:05;97719.69;;;3.69;86.56
78990;BME280;68390;52.130;21.218;2023-03-11T03:31:31;97714.19;;;3.62;85.83
78990;BME280;68390;52.130;21.218;2023-03-11T03:33:56;97715.59;;;3.58;86.09
78990;BME280;68390;52.130;21.218;2023-03-11T03:36:22;97714.69;;;3.51;85.52
78990;BME280;68390;52.130;21.218;2023-03-11T03:38:52;97716.09;;;3.47;86.19
78990;BME280;68390;52.130;21.218;2023-03-11T03:41:18;97726.31;;;3.45;85.86
78990;BME280;68390;52.130;21.218;2023-03-11T03:43:43;97728.09;;;3.38;85.45
78990;BME280;68390;52.130;21.218;2023-03-11T03:46:09;97725.75;;;3.35;86.88
78990;BME280;68390;52.130;21.218;2023-03-11T03:48:34;97723.63;;;3.30;85.98
78990;BME280;68390;52.130;21.218;2023-03-11T03:51:04;97724.84;;;3.28;86.92
78990;BME280;68390;52.130;21.218;2023-03-11T03:53:32;97714.38;;;3.25;86.60
78990;BME280;68390;52.130;21.218;2023-03-11T03:56:04;97717.47;;;3.22;86.21
78990;BME280;68390;52.130;21.218;2023-03-11T03:58:30;97707.84;;;3.19;86.60
78990;BME280;68390;52.130;21.218;2023-03-11T04:00:56;97697.38;;;3.16;87.14
78990;BME280;68390;52.130;21.218;2023-03-11T04:03:24;97693.16;;;3.14;86.12
78990;BME280;68390;52.130;21.218;2023-03-11T04:05:49;97683.16;;;3.14;87.45
78990;BME280;68390;52.130;21.218;2023-03-11T04:08:15;97684.84;;;3.15;87.81
78990;BME280;68390;52.130;21.218;2023-03-11T04:10:40;97683.81;;;3.16;88.29
78990;BME280;68390;52.130;21.218;2023-03-11T04:13:06;97686.34;;;3.18;87.75
78990;BME280;68390;52.130;21.218;2023-03-11T04:15:31;97687.38;;;3.17;87.25
78990;BME280;68390;52.130;21.218;2023-03-11T04:17:57;97687.38;;;3.17;86.98
78990;BME280;68390;52.130;21.218;2023-03-11T04:20:22;97691.13;;;3.16;87.10
78990;BME280;68390;52.130;21.218;2023-03-11T04:22:47;97695.22;;;3.12;86.31
78990;BME280;68390;52.130;21.218;2023-03-11T04:25:13;97693.94;;;3.08;86.42
78990;BME280;68390;52.130;21.218;2023-03-11T04:27:38;97689.53;;;3.07;86.26
78990;BME280;68390;52.130;21.218;2023-03-11T04:30:08;97689.91;;;3.04;87.23
78990;BME280;68390;52.130;21.218;2023-03-11T04:32:33;97691.97;;;3.02;86.83
78990;BME280;68390;52.130;21.218;2023-03-11T04:34:59;97684.06;;;3.00;86.53
78990;BME280;68390;52.130;21.218;2023-03-11T04:37:28;97688.63;;;3.00;87.42
78990;BME280;68390;52.130;21.218;2023-03-11T04:39:53;97693.03;;;3.01;87.13
78990;BME280;68390;52.130;21.218;2023-03-11T04:42:19;97699.25;;;3.01;87.43
78990;BME280;68390;52.130;21.218;2023-03-11T04:44:44;97698.44;;;3.01;87.15
78990;BME280;68390;52.130;21.218;2023-03-11T04:47:09;97697.19;;;3.03;87.15
78990;BME280;68390;52.130;21.218;2023-03-11T04:49:35;97687.03;;;3.05;87.55
78990;BME280;68390;52.130;21.218;2023-03-11T04:52:01;97687.50;;;3.09;87.78
78990;BME280;68390;52.130;21.218;2023-03-11T04:54:26;97694.41;;;3.11;87.78
78990;BME280;68390;52.130;21.218;2023-03-11T04:56:52;97700.28;;;3.15;87.81
78990;BME280;68390;52.130;21.218;2023-03-11T04:59:18;97708.69;;;3.20;87.90
78990;BME280;68390;52.130;21.218;2023-03-11T05:01:43;97713.34;;;3.26;88.79
78990;BME280;68390;52.130;21.218;2023-03-11T05:04:08;97712.19;;;3.35;90.08
78990;BME280;68390;52.130;21.218;2023-03-11T05:06:35;97718.81;;;3.47;90.41
78990;BME280;68390;52.130;21.218;2023-03-11T05:09:00;97707.84;;;3.55;90.88
78990;BME280;68390;52.130;21.218;2023-03-11T05:11:26;97708.38;;;3.65;90.57
78990;BME280;68390;52.130;21.218;2023-03-11T05:13:51;97699.28;;;3.73;90.58
78990;BME280;68390;52.130;21.218;2023-03-11T05:16:17;97688.47;;;3.80;90.50
78990;BME280;68390;52.130;21.218;2023-03-11T05:18:42;97683.94;;;3.87;90.15
78990;BME280;68390;52.130;21.218;2023-03-11T05:21:08;97698.16;;;3.89;89.44
78990;BME280;68390;52.130;21.218;2023-03-11T05:23:33;97694.66;;;3.95;89.15
78990;BME280;68390;52.130;21.218;2023-03-11T05:25:58;97685.28;;;3.97;89.25
78990;BME280;68390;52.130;21.218;2023-03-11T05:28:24;97691.84;;;4.03;88.88
78990;BME280;68390;52.130;21.218;2023-03-11T05:30:49;97697.50;;;4.08;88.60
78990;BME280;68390;52.130;21.218;2023-03-11T05:33:15;97692.53;;;4.12;89.04
78990;BME280;68390;52.130;21.218;2023-03-11T05:35:41;97692.16;;;4.15;89.11
78990;BME280;68390;52.130;21.218;2023-03-11T05:38:07;97683.41;;;4.19;88.67
78990;BME280;68390;52.130;21.218;2023-03-11T05:40:32;97682.63;;;4.25;88.82
78990;BME280;68390;52.130;21.218;2023-03-11T05:42:58;97677.44;;;4.30;89.06
78990;BME280;68390;52.130;21.218;2023-03-11T05:45:23;97676.00;;;4.34;88.56
78990;BME280;68390;52.130;21.218;2023-03-11T05:47:51;97685.44;;;4.38;88.72
78990;BME280;68390;52.130;21.218;2023-03-11T05:50:17;97679.59;;;4.41;88.11
78990;BME280;68390;52.130;21.218;2023-03-11T05:52:42;97678.19;;;4.46;88.46
78990;BME280;68390;52.130;21.218;2023-03-11T05:55:08;97679.44;;;4.50;88.18
78990;BME280;68390;52.130;21.218;2023-03-11T05:57:35;97676.16;;;4.54;88.26
78990;BME280;68390;52.130;21.218;2023-03-11T06:00:02;97678.25;;;4.59;87.77
78990;BME280;68390;52.130;21.218;2023-03-11T06:02:29;97684.97;;;4.63;87.60
78990;BME280;68390;52.130;21.218;2023-03-11T06:04:55;97680.59;;;4.68;87.84
78990;BME280;68390;52.130;21.218;2023-03-11T06:07:20;97683.38;;;4.75;88.07
78990;BME280;68390;52.130;21.218;2023-03-11T06:09:49;97696.34;;;4.79;87.95
78990;BME280;68390;52.130;21.218;2023-03-11T06:12:14;97692.88;;;4.86;87.82
78990;BME280;68390;52.130;21.218;2023-03-11T06:14:40;97685.75;;;4.91;87.80
78990;BME280;68390;52.130;21.218;2023-03-11T06:17:05;97691.25;;;4.98;87.99
78990;BME280;68390;52.130;21.218;2023-03-11T06:19:31;97699.44;;;5.04;87.37
78990;BME280;68390;52.130;21.218;2023-03-11T06:21:56;97705.75;;;5.11;87.39
78990;BME280;68390;52.130;21.218;2023-03-11T06:24:21;97704.94;;;5.18;87.49
78990;BME280;68390;52.130;21.218;2023-03-11T06:26:50;97708.53;;;5.25;86.67
78990;BME280;68390;52.130;21.218;2023-03-11T06:29:16;97712.94;;;5.32;87.07
78990;BME280;68390;52.130;21.218;2023-03-11T06:31:41;97704.00;;;5.38;86.75
78990;BME280;68390;52.130;21.218;2023-03-11T06:34:08;97702.97;;;5.46;86.78
78990;BME280;68390;52.130;21.218;2023-03-11T06:36:35;97710.09;;;5.53;86.63
78990;BME280;68390;52.130;21.218;2023-03-11T06:39:00;97711.78;;;5.61;86.97
78990;BME280;68390;52.130;21.218;2023-03-11T06:41:26;97714.34;;;5.69;86.01
78990;BME280;68390;52.130;21.218;2023-03-11T06:43:51;97716.03;;;5.77;86.58
78990;BME280;68390;52.130;21.218;2023-03-11T06:46:20;97717.72;;;5.84;85.83
78990;BME280;68390;52.130;21.218;2023-03-11T06:48:46;97716.72;;;5.92;85.39
78990;BME280;68390;52.130;21.218;2023-03-11T06:51:12;97722.00;;;6.00;85.62
78990;BME280;68390;52.130;21.218;2023-03-11T06:53:38;97719.06;;;6.08;85.31
78990;BME280;68390;52.130;21.218;2023-03-11T06:56:07;97722.22;;;6.18;84.76
78990;BME280;68390;52.130;21.218;2023-03-11T06:58:34;97719.50;;;6.25;84.55
78990;BME280;68390;52.130;21.218;2023-03-11T07:01:02;97719.91;;;6.35;84.75
78990;BME280;68390;52.130;21.218;2023-03-11T07:03:28;97720.53;;;6.44;85.07
78990;BME280;68390;52.130;21.218;2023-03-11T07:05:53;97714.91;;;6.52;84.21
78990;BME280;68390;52.130;21.218;2023-03-11T07:08:19;97718.44;;;6.59;84.43
78990;BME280;68390;52.130;21.218;2023-03-11T07:10:45;97722.00;;;6.66;83.75
78990;BME280;68390;52.130;21.218;2023-03-11T07:13:11;97720.53;;;6.70;83.72
78990;BME280;68390;52.130;21.218;2023-03-11T07:15:36;97725.38;;;6.75;83.74
78990;BME280;68390;52.130;21.218;2023-03-11T07:18:02;97730.19;;;6.79;82.64
78990;BME280;68390;52.130;21.218;2023-03-11T07:20:27;97733.34;;;6.83;83.61
78990;BME280;68390;52.130;21.218;2023-03-11T07:22:52;97736.69;;;6.85;83.09
78990;BME280;68390;52.130;21.218;2023-03-11T07:25:18;97740.03;;;6.87;82.97
78990;BME280;68390;52.130;21.218;2023-03-11T07:27:43;97739.81;;;6.88;82.70
78990;BME280;68390;52.130;21.218;2023-03-11T07:30:09;97745.06;;;6.90;82.59
78990;BME280;68390;52.130;21.218;2023-03-11T07:32:35;97746.53;;;6.92;82.56
78990;BME280;68390;52.130;21.218;2023-03-11T07:35:00;97754.50;;;6.94;82.47
78990;BME280;68390;52.130;21.218;2023-03-11T07:37:26;97751.78;;;6.94;82.00
78990;BME280;68390;52.130;21.218;2023-03-11T07:39:51;97746.31;;;6.94;81.71
78990;BME280;68390;52.130;21.218;2023-03-11T07:42:17;97751.34;;;6.97;82.42
78990;BME280;68390;52.130;21.218;2023-03-11T07:44:42;97744.84;;;6.98;81.30
78990;BME280;68390;52.130;21.218;2023-03-11T07:47:07;97759.09;;;7.00;81.88
78990;BME280;68390;52.130;21.218;2023-03-11T07:49:33;97748.81;;;7.02;81.71
78990;BME280;68390;52.130;21.218;2023-03-11T07:51:58;97755.50;;;7.06;82.11
78990;BME280;68390;52.130;21.218;2023-03-11T07:54:24;97765.19;;;7.09;81.32
78990;BME280;68390;52.130;21.218;2023-03-11T07:56:49;97771.06;;;7.12;82.52
78990;BME280;68390;52.130;21.218;2023-03-11T07:59:15;97768.97;;;7.14;81.85
78990;BME280;68390;52.130;21.218;2023-03-11T08:01:40;97766.63;;;7.18;81.27
78990;BME280;68390;52.130;21.218;2023-03-11T08:04:12;97765.78;;;7.17;81.33
78990;BME280;68390;52.130;21.218;2023-03-11T08:06:38;97763.06;;;7.17;81.11
78990;BME280;68390;52.130;21.218;2023-03-11T08:09:06;97772.09;;;7.18;80.83
78990;BME280;68390;52.130;21.218;2023-03-11T08:11:31;97787.63;;;7.17;80.98
78990;BME280;68390;52.130;21.218;2023-03-11T08:13:57;97780.25;;;7.18;81.54
78990;BME280;68390;52.130;21.218;2023-03-11T08:16:23;97778.38;;;7.18;81.18
78990;BME280;68390;52.130;21.218;2023-03-11T08:18:50;97781.75;;;7.20;81.46
78990;BME280;68390;52.130;21.218;2023-03-11T08:21:19;97776.28;;;7.20;81.01
78990;BME280;68390;52.130;21.218;2023-03-11T08:23:45;97764.31;;;7.21;79.97
78990;BME280;68390;52.130;21.218;2023-03-11T08:26:12;97778.16;;;7.20;80.66
78990;BME280;68390;52.130;21.218;2023-03-11T08:28:38;97773.97;;;7.17;80.38
78990;BME280;68390;52.130;21.218;2023-03-11T08:33:39;97779.44;;;7.17;81.05
78990;BME280;68390;52.130;21.218;2023-03-11T08:36:05;97788.69;;;7.16;80.68
78990;BME280;68390;52.130;21.218;2023-03-11T08:38:30;97784.50;;;7.14;79.91
78990;BME280;68390;52.130;21.218;2023-03-11T08:40:56;97787.44;;;7.12;80.08
78990;BME280;68390;52.130;21.218;2023-03-11T08:43:21;97790.16;;;7.12;79.76
78990;BME280;68390;52.130;21.218;2023-03-11T08:45:47;97792.88;;;7.12;80.14
78990;BME280;68390;52.130;21.218;2023-03-11T08:48:12;97792.66;;;7.07;79.43
78990;BME280;68390;52.130;21.218;2023-03-11T08:50:42;97808.44;;;7.05;79.64
78990;BME280;68390;52.130;21.218;2023-03-11T08:53:07;97802.97;;;7.05;79.85
78990;BME280;68390;52.130;21.218;2023-03-11T08:55:33;97815.16;;;7.03;80.56
78990;BME280;68390;52.130;21.218;2023-03-11T08:57:58;97820.19;;;7.06;80.11
78990;BME280;68390;52.130;21.218;2023-03-11T09:00:24;97814.72;;;6.99;79.10
78990;BME280;68390;52.130;21.218;2023-03-11T09:02:49;97819.34;;;6.98;80.39
78990;BME280;68390;52.130;21.218;2023-03-11T09:05:15;97827.72;;;6.97;79.71
78990;BME280;68390;52.130;21.218;2023-03-11T09:07:41;97827.72;;;6.97;81.05
78990;BME280;68390;52.130;21.218;2023-03-11T09:10:07;97829.84;;;6.95;80.68
78990;BME280;68390;52.130;21.218;2023-03-11T09:12:32;97832.78;;;6.93;81.36
78990;BME280;68390;52.130;21.218;2023-03-11T09:14:58;97837.41;;;6.93;81.11
78990;BME280;68390;52.130;21.218;2023-03-11T09:17:24;97830.47;;;6.90;81.43
78990;BME280;68390;52.130;21.218;2023-03-11T09:19:49;97836.53;;;6.86;81.19
78990;BME280;68390;52.130;21.218;2023-03-11T09:22:14;97840.75;;;6.82;81.66
78990;BME280;68390;52.130;21.218;2023-03-11T09:24:40;97850.38;;;6.78;81.73
78990;BME280;68390;52.130;21.218;2023-03-11T09:27:05;97858.56;;;6.71;81.76
78990;BME280;68390;52.130;21.218;2023-03-11T09:29:31;97864.63;;;6.67;82.24
78990;BME280;68390;52.130;21.218;2023-03-11T09:31:57;97864.63;;;6.67;81.67
78990;BME280;68390;52.130;21.218;2023-03-11T09:34:22;97852.28;;;6.64;81.53
78990;BME280;68390;52.130;21.218;2023-03-11T09:36:48;97860.66;;;6.62;82.32
78990;BME280;68390;52.130;21.218;2023-03-11T09:39:13;97860.03;;;6.60;81.97
78990;BME280;68390;52.130;21.218;2023-03-11T09:44:36;97869.66;;;6.56;81.82
78990;BME280;68390;52.130;21.218;2023-03-11T09:50:25;97867.38;;;6.53;82.12
78990;BME280;68390;52.130;21.218;2023-03-11T09:53:24;97875.09;;;6.50;82.33
78990;BME280;68390;52.130;21.218;2023-03-11T09:56:04;97867.53;;;6.45;82.35
78990;BME280;68390;52.130;21.218;2023-03-11T09:58:44;97865.44;;;6.41;82.78
78990;BME280;68390;52.130;21.218;2023-03-11T10:01:31;97874.22;;;6.36;83.04
78990;BME280;68390;52.130;21.218;2023-03-11T10:06:51;97883.88;;;6.32;83.32
78990;BME280;68390;52.130;21.218;2023-03-11T10:14:53;97884.28;;;6.29;84.57
78990;BME280;68390;52.130;21.218;2023-03-11T10:26:02;97926.44;;;5.92;82.48
78990;BME280;68390;52.130;21.218;2023-03-11T10:33:54;97959.44;;;5.48;80.66
78990;BME280;68390;52.130;21.218;2023-03-11T10:36:23;97970.41;;;5.33;80.35
78990;BME280;68390;52.130;21.218;2023-03-11T10:38:53;97969.41;;;5.13;80.33
78990;BME280;68390;52.130;21.218;2023-03-11T10:41:29;97997.44;;;4.92;78.46
78990;BME280;68390;52.130;21.218;2023-03-11T10:44:01;97998.72;;;4.75;79.31
78990;BME280;68390;52.130;21.218;2023-03-11T10:46:28;98014.88;;;4.62;80.58
78990;BME280;68390;52.130;21.218;2023-03-11T10:48:54;98012.66;;;4.51;79.89
78990;BME280;68390;52.130;21.218;2023-03-11T10:51:25;98017.91;;;4.37;79.56
78990;BME280;68390;52.130;21.218;2023-03-11T10:53:57;98027.38;;;4.27;79.26
78990;BME280;68390;52.130;21.218;2023-03-11T10:56:56;98034.53;;;4.13;78.54
78990;BME280;68390;52.130;21.218;2023-03-11T11:02:03;98052.00;;;3.96;80.60
78990;BME280;68390;52.130;21.218;2023-03-11T11:04:39;98059.22;;;3.89;79.97
78990;BME280;68390;52.130;21.218;2023-03-11T11:07:27;98064.38;;;3.84;80.98
78990;BME280;68390;52.130;21.218;2023-03-11T11:15:59;98080.41;;;3.56;80.34
78990;BME280;68390;52.130;21.218;2023-03-11T11:18:46;98097.50;;;3.42;80.67
78990;BME280;68390;52.130;21.218;2023-03-11T11:21:16;98102.44;;;3.38;80.63
78990;BME280;68390;52.130;21.218;2023-03-11T11:24:03;98104.59;;;3.20;80.25
78990;BME280;68390;52.130;21.218;2023-03-11T11:26:31;98115.84;;;3.09;79.45
78990;BME280;68390;52.130;21.218;2023-03-11T11:31:34;98122.59;;;2.90;79.32
78990;BME280;68390;52.130;21.218;2023-03-11T11:34:00;98132.81;;;2.80;80.55
78990;BME280;68390;52.130;21.218;2023-03-11T11:36:29;98141.78;;;2.72;79.74
78990;BME280;68390;52.130;21.218;2023-03-11T11:38:55;98137.09;;;2.66;80.78
78990;BME280;68390;52.130;21.218;2023-03-11T11:41:26;98152.00;;;2.62;80.41
78990;BME280;68390;52.130;21.218;2023-03-11T11:43:57;98153.22;;;2.60;80.58
78990;BME280;68390;52.130;21.218;2023-03-11T11:46:29;98164.56;;;2.55;80.49
78990;BME280;68390;52.130;21.218;2023-03-11T11:52:13;98180.50;;;2.42;78.31
78990;BME280;68390;52.130;21.218;2023-03-11T11:54:51;98188.66;;;2.34;78.01
78990;BME280;68390;52.130;21.218;2023-03-11T11:57:20;98185.25;;;2.32;79.54
78990;BME280;68390;52.130;21.218;2023-03-11T11:59:46;98209.31;;;2.27;77.70
78990;BME280;68390;52.130;21.218;2023-03-11T12:05:23;98226.25;;;2.12;76.60
78990;BME280;68390;52.130;21.218;2023-03-11T12:08:00;98231.84;;;2.11;77.18
78990;BME280;68390;52.130;21.218;2023-03-11T12:10:48;98238.63;;;2.07;75.73
78990;BME280;68390;52.130;21.218;2023-03-11T12:13:32;98242.84;;;2.01;75.91
78990;BME280;68390;52.130;21.218;2023-03-11T12:21:24;98255.53;;;1.76;76.81
78990;BME280;68390;52.130;21.218;2023-03-11T12:26:34;98265.81;;;1.73;78.03
78990;BME280;68390;52.130;21.218;2023-03-11T12:31:40;98273.56;;;1.68;77.22
78990;BME280;68390;52.130;21.218;2023-03-11T12:34:09;98293.72;;;1.65;76.74
78990;BME280;68390;52.130;21.218;2023-03-11T12:36:39;98295.75;;;1.63;77.52
78990;BME280;68390;52.130;21.218;2023-03-11T12:39:15;98315.84;;;1.61;77.77
78990;BME280;68390;52.130;21.218;2023-03-11T12:41:44;98320.91;;;1.56;77.88
78990;BME280;68390;52.130;21.218;2023-03-11T12:44:40;98326.63;;;1.44;78.52
78990;BME280;68390;52.130;21.218;2023-03-11T12:49:51;98350.34;;;1.25;79.22
78990;BME280;68390;52.130;21.218;2023-03-11T12:52:28;98352.53;;;1.21;79.90
78990;BME280;68390;52.130;21.218;2023-03-11T12:57:49;98360.28;;;1.16;79.28
78990;BME280;68390;52.130;21.218;2023-03-11T13:08:49;98394.38;;;1.09;80.24
78990;BME280;68390;52.130;21.218;2023-03-11T13:14:28;98406.19;;;1.08;81.08
78990;BME280;68390;52.130;21.218;2023-03-11T13:16:56;98415.78;;;1.02;81.63
78990;BME280;68390;52.130;21.218;2023-03-11T13:19:57;98416.56;;;0.95;80.09
78990;BME280;68390;52.130;21.218;2023-03-11T13:22:43;98435.47;;;0.95;79.68
78990;BME280;68390;52.130;21.218;2023-03-11T13:25:35;98432.78;;;0.95;81.14
78990;BME280;68390;52.130;21.218;2023-03-11T13:31:38;98475.34;;;0.93;79.76
78990;BME280;68390;52.130;21.218;2023-03-11T13:37:08;98464.69;;;0.91;78.32
78990;BME280;68390;52.130;21.218;2023-03-11T13:40:23;98474.63;;;0.91;78.76
78990;BME280;68390;52.130;21.218;2023-03-11T13:42:56;98491.84;;;0.90;79.70
78990;BME280;68390;52.130;21.218;2023-03-11T13:45:35;98506.38;;;0.89;78.89
78990;BME280;68390;52.130;21.218;2023-03-11T13:48:17;98508.75;;;0.92;80.49
78990;BME280;68390;52.130;21.218;2023-03-11T13:50:54;98502.50;;;0.91;80.99
78990;BME280;68390;52.130;21.218;2023-03-11T13:53:29;98531.84;;;0.86;79.58
78990;BME280;68390;52.130;21.218;2023-03-11T13:55:56;98546.19;;;0.87;79.93
78990;BME280;68390;52.130;21.218;2023-03-11T13:58:24;98550.22;;;0.83;79.53
78990;BME280;68390;52.130;21.218;2023-03-11T14:00:52;98542.03;;;0.74;81.17
78990;BME280;68390;52.130;21.218;2023-03-11T14:03:19;98560.69;;;0.68;81.12
78990;BME280;68390;52.130;21.218;2023-03-11T14:06:02;98570.94;;;0.64;81.41
78990;BME280;68390;52.130;21.218;2023-03-11T14:08:33;98574.56;;;0.55;80.55
78990;BME280;68390;52.130;21.218;2023-03-11T14:11:13;98585.66;;;0.52;81.38
78990;BME280;68390;52.130;21.218;2023-03-11T14:13:48;98600.19;;;0.51;81.49
78990;BME280;68390;52.130;21.218;2023-03-11T14:16:15;98606.44;;;0.52;81.71
78990;BME280;68390;52.130;21.218;2023-03-11T14:18:46;98614.84;;;0.49;81.27
78990;BME280;68390;52.130;21.218;2023-03-11T14:21:15;98620.69;;;0.44;80.68
78990;BME280;68390;52.130;21.218;2023-03-11T14:23:49;98625.69;;;0.39;81.49
78990;BME280;68390;52.130;21.218;2023-03-11T14:26:27;98630.53;;;0.35;81.72
78990;BME280;68390;52.130;21.218;2023-03-11T14:28:56;98636.78;;;0.36;81.75
78990;BME280;68390;52.130;21.218;2023-03-11T14:31:37;98652.13;;;0.35;80.75
78990;BME280;68390;52.130;21.218;2023-03-11T14:39:32;98662.13;;;0.25;79.79
78990;BME280;68390;52.130;21.218;2023-03-11T14:42:12;98669.38;;;0.25;79.57